View Sortable Currents For Network
ASOSAWOSCoCoRaHSCOOPDCPISUSM
SchoolNetOtherSCANMy FavoritesBy StateRWIS
RWIS SurfaceRWIS TrafficRWIS SoilBy NWS WFO
ADD: Station: Ob Time Temps °F     Wind [knots] Precip
Air (Hi / Lo) DewP Feels RH% Vis Speed Direction Gust @Time Accum [1]
Sigourney Hwy 14908:24 AM 39.2(48.3/31.6) 38.7 34 98 0 7G10 341 26@ 08:24 AM 0
Dubuque (US 20)08:24 AM 36.86(39.92/35.96) 36.32 30 98 0 8G17 0 18@ 07:04 AM 0
Oskaloosa Hwy 9208:24 AM 38.7(48.6/31.6) 0 11G15 20 25@ 08:24 AM 0
Steamboat Rock (US20)08:24 AM 35.6(39.92/35.6) 33.26 23 91 0 22G28 335 28@ 08:24 AM 0
Des Moines (I-35)08:23 AM 37.94(45.68/37.94) 35.96 92 0 0 330 25@ 05:43 AM 0
Marshalltown (US 30)08:23 AM 36.68(41.36/36.68) 35.78 28 97 0 12G21 335 22@ 03:13 AM 0
De Witt (US 30/US 61)08:23 AM 37.76(42.44/37.76) 37.76 28 100 0 16G20 0 23@ 07:13 AM 0
Sidney (I-29/IA 2)08:22 AM 39.2(50.54/39.02) 35.96 29 88 0.1 19G25 355 31@ 04:02 AM 0
Storm Lake (US 71/IA 3)08:21 AM 30.56(38.12/30.56) 25.88 19 83 2.7 15G19 335 21@ 06:11 AM 0
Ankeny (I-35)08:21 AM 37.22(44.06/37.22) 35.96 27 95 1.2 18G26 335 28@ 08:11 AM 0
Pella (IA 163)08:21 AM 38.66(45.68/38.48) 36.68 31 93 0 10G22 0 29@ 07:41 AM 0
Spencer (US 18)08:21 AM (/) 1.2 10G12 325 18@ 06:01 AM 0
Centerville (IA 2)08:20 AM 38.66(50.9/38.66) 37.4 31 95 0 10G22 355 29@ 06:40 AM 0
Plainfield08:20 AM 35.6(38.84/35.6) 8.96 25 32 1.4 17G23 350 23@ 08:20 AM 0
Eddyville08:20 AM 39.56(48.38/39.56) 6.62 31 25 1.4 12G19 10 29@ 07:50 AM 0
Carroll (US 30)08:20 AM 33.62(41/33.44) 31.28 23 91 0 13G18 280 27@ 03:20 AM 0
Des Moines (I-235)08:20 AM 38.3(45.68/38.3) 36.32 93 2.7 0 361 0@ 06:00 PM 0
Iowa City (I-80)08:20 AM (/) 0 0 361 0@ 06:00 PM 0
De Soto (I-80/US 169)08:20 AM 37.4(45.86/37.4) 36.86 29 98 1.1 13G21 350 23@ 02:20 AM 0
Williamsburg (I-80)08:20 AM 38.48(43.7/38.3) 37.4 30 96 1.3 14G23 0 24@ 07:50 AM 0
Burlington (US 34)08:20 AM 41.18(51.8/41.18) 41 34 99 0 11G16 5 25@ 07:20 AM 0
Denison08:20 AM 26.06(36.86/25.34) 21.38 13 82 0.1 15G19 315 24@ 02:40 AM 0
Decorah (IA 9)08:20 AM 35.42(37.58/35.42) 35.42 26 100 2.6 13G17 315 20@ 06:00 AM 0
Elkhart I-35 No108:20 AM (/) 1.2 0 361 0@ 06:00 PM 0
Council Bluffs No208:20 AM 36.86(47.3/36.5) 32.72 33 85 0 4G14 340 24@ 12:10 AM 0
Ottumwa (US 63)08:20 AM 39.92(49.64/39.92) 38.3 32 94 7.1 13G22 335 27@ 06:20 AM 0
Algona (US 18)08:20 AM 30.38(37.4/30.2) 28.04 19 91 0 15G22 350 28@ 03:50 AM 0
Alton (IA10)08:20 AM 31.64(37.04/29.84) 26.96 22 83 0 12G17 315 17@ 02:50 AM 0
Adair (I-80)08:20 AM 35.42(43.7/35.42) 32.9 25 90 0.1 17G28 350 31@ 01:40 AM 0
Jefferson (IA 4)08:20 AM 34.7(42.8/34.7) 32.72 23 92 2.6 18G25 340 26@ 03:50 AM 0
Elkhart I-35 No208:20 AM (/) 1.2 0 361 0@ 06:00 PM 0
Creston (US 34)08:20 AM 38.3(50.36/38.12) 36.86 28 94 0 18G24 350 30@ 05:20 AM 0
Fort Dodge (US 20)08:20 AM 33.44(40.64/33.44) 30.56 24 89 2.3 12G21 5 25@ 03:40 AM 0
Quad Cities08:20 AM 38.3(45.68/38.3) 37.04 30 95 1 12G19 25 22@ 08:00 AM 0
Mount Pleasant (US 218)08:20 AM 40.28(50.18/40.28) 38.84 33 95 0 11G16 345 25@ 06:30 AM 0
Cantril08:20 AM 40.28(52.34/40.28) 31.82 35 72 0 6G18 0 25@ 07:20 AM 0
Sioux City Maintenance08:20 AM (/) 0 0 0@ 06:00 PM 0
Mason City (I-35)08:20 AM 37.76(40.28/37.58) 37.76 27 100 0.2 18G23 340 23@ 07:30 AM 0
Altoona (I-80/US 65)08:20 AM 37.58(44.78/37.58) 36.14 28 94 3.7 14G25 0 25@ 08:20 AM 0
Ida Grove (US 59)08:20 AM 32.9(39.92/32.36) 26.24 25 76 0 9G16 320 18@ 02:50 AM 0
Davenport (I-80/I-280)08:20 AM 38.66(44.24/38.66) 35.6 29 89 0 18G23 30 28@ 07:50 AM 0
Moville08:20 AM 33.8(39.02/33.08) 30.92 25 89 7.1 10G13 15 18@ 02:10 AM 0
Ames (I-35)08:20 AM 36.86(42.8/36.86) 35.06 28 93 2.2 13G23 345 25@ 07:50 AM 0
New Hampton (US 18)08:20 AM 35.24(38.3/35.24) 33.8 28 94 7.1 8G17 165 18@ 08:00 AM 0
Cedar Rapids (I-380)08:20 AM 38.84(42.98/38.84) 37.04 32 93 0.4 9G16 5 19@ 03:20 AM 0
Osceola (I-35)08:20 AM 38.12(49.46/38.12) 37.94 29 99 0.1 16G22 0 28@ 07:10 AM 0
Manchester (US 20)08:20 AM 37.4(40.1/36.14) 35.78 32 94 0 6G15 0 18@ 04:00 AM 0
Maquoketa (US 61/IA 64)08:20 AM 37.4(41.36/37.4) 35.96 29 94 4.1 12G19 15 26@ 08:00 AM 0
Sibley08:20 AM 29.3(34.52/26.96) 25.52 19 86 7.1 11G13 295 20@ 12:20 AM 0
Waterloo (US 20)08:20 AM 37.4(40.28/37.4) 37.22 30 99 0 9G16 15 21@ 08:00 AM 0
Tama08:20 AM 37.94(40.82/37.58) 31.28 28 77 7.1 15G20 350 25@ 08:10 AM 0
Leon (I-35)/IA 2)08:20 AM 38.84(52.52/38.84) 37.4 33 95 0.2 8G18 340 31@ 05:40 AM 0
Rockwell City08:20 AM 32.18(39.2/32) 31.28 21 96 0 16G20 335 27@ 03:10 AM 0
Bedford08:20 AM 38.66(50.72/38.66) 38.66 29 100 0.2 16G22 340 30@ 05:30 AM 0
Missouri Valley (I-29)08:20 AM 36.32(44.06/35.96) 31.46 26 82 1.6 15G27 335 27@ 08:20 AM 0
Council Bluffs (I-80)08:20 AM 38.12(48.02/37.58) -10.3 28 12 0 16G19 150 26@ 05:20 AM 0
Red Oak (US 34/US 71)08:20 AM 37.76(49.82/37.76) 36.32 30 94 0 11G15 340 17@ 04:30 AM 0
Estherville - Hwy 908:20 AM 27.5(36.14/27.5) 23.36 15 84 0 14G18 330 22@ 06:00 AM 0
Cedar Rapids (US 30)08:20 AM 38.48(42.98/38.3) 37.58 34 97 0.3 5G17 330 18@ 08:00 AM 0
Avoca (I-80)08:20 AM 34.52(43.16/34.52) 33.26 24 95 0.5 15G20 335 27@ 02:00 AM 0
Iowa City (US 218)08:20 AM 38.48(44.24/38.48) 38.48 31 100 0 11G22 305 24@ 08:10 AM 0
Cambridge I-3508:20 AM (/) 1.2 0 361 0@ 06:00 PM 0
Tipton (I-80)08:20 AM 38.3(43.7/38.3) 37.04 30 95 0.7 11G17 10 21@ 07:50 AM 0
Anamosa (US 151)08:20 AM 37.22(41.72/37.22) 35.78 28 94 1.2 13G22 355 23@ 07:50 AM 0
Sloan I-2908:20 AM 34.7(40.1/34.52) 28.58 24 78 7.1 16G19 345 23@ 07:50 AM 0
Williams (I-35)08:20 AM 35.96(39.74/35.6) 33.62 26 91 0 16G23 350 23@ 07:50 AM 0
Colfax - I-8008:20 AM 38.3(44.42/38.3) 37.04 30 95 1 11G21 355 24@ 06:50 AM 0
Urbana (I-380)08:20 AM 37.04(40.1/37.04) 36.32 29 97 0.2 11G18 340 21@ 08:00 AM 0
Hanlontown (I-35)Nov-18-2017Site Offline
Sigourney (IA 92)Nov-17-2017Site Offline
Grinnell (I-80)Oct-27-2017Site Offline
AinsworthMar-30-2017Site Offline
Onawa (I-29)Nov-04-2016Site Offline
Spencer 111th AveApr-01-2016Site Offline
DeWitt Hwy 61Mar-09-2016Site Offline
Argyle - US 27Jan-06-2016Site Offline
MaynardNov-24-2015Site Offline
Iowa FallsMar-01-2015Site Offline
Ames 6S I-35Dec-10-2014Site Offline
Sloan I-29 (portable)Oct-14-2013Site Offline
Osceola (US 34)Dec-07-2010Site Offline
Lime SpringsOct-03-2010Site Offline
Sabula Hwy 52Jan-01-1980Site Offline
Sigourney IA149Jan-01-1980Site Offline
De Witt US61Jan-01-1980Site Offline
Oskaloosa IA92Jan-01-1980Site Offline
Sabula US52Jan-01-1980Site Offline
  Plot (Plot / Plot) Plot Plot Plot Plot Plot Plot Plot


Notes:
1 Not all sites have the ability to measure precip nor visibility.
2 The Iowa City (I-80) RWIS site does not have atmospheric sensors on it , so it is not included on this page.